Terminal Aerodrome Forecast
Issued by NWS

Home | Current Version | Previous Version | Text Only | Print | Product List | Glossary Off
Versions: 1 2 3 4 5 6 7 8 9 10 11 12

168
FTUS43 KIWX 242320
TAFSBN
TAF
KSBN 242320Z 2500/2524 10006KT P6SM SCT080
     FM251400 14008KT P6SM BKN060
     FM252200 16010KT P6SM SCT100 BKN250=

USA.gov is the U.S. government's official web portal to all federal, state and local government web resources and services.